Weather observations for the past three days for
Wahpeton, Harry Stern Airport
Imperial (Metric)
Date Time (cdt) Wind (mph) Vis. (mi.) Weather Sky Cond. Temperature (ºF) Relative Humidity Wind Chill (°F) Heat Index (°F) Pressure Precipitation (in)
Air Dwpt 6 hour altimeter (in) sea level (mb) 1 hr 3 hr 6 hr
Max. Min.
10 10:55 N 16 10.00 Fair CLR 50 26.6 40% 45 30.19 0.0
10 10:35 N 15 10.00 Fair CLR 50 28.4 43% 45 30.19 0.0
10 10:15 N 15 10.00 Fair CLR 50 28.4 43% 45 30.19 0.0
10 09:55 N 13 G 22 10.00 Fair CLR 48.2 26.6 43% 43 30.18 0.0
10 09:35 N 13 10.00 Fair CLR 48.2 28.4 46% 43 30.18 0.0
10 09:15 N 16 10.00 Fair CLR 48.2 28.4 46% 43 30.18 0.0
10 08:55 N 16 10.00 Fair CLR 48.2 28.4 46% 43 30.17 0.0
10 08:35 N 12 G 18 10.00 A Few Clouds FEW070 46.4 28.4 50% 42 30.16 0.0
10 08:15 N 12 10.00 Mostly Cloudy BKN070 44.6 28.4 53% 39 30.16 0.0
10 07:55 N 10 10.00 Overcast OVC075 42.8 28.4 57% 38 30.15 0.0
10 07:35 N 12 10.00 Overcast OVC075 42.8 30.2 61% 37 30.15 0.0
10 07:15 N 12 10.00 Mostly Cloudy BKN075 42.8 30.2 61% 37 30.14 0.0
10 06:55 N 12 10.00 Overcast OVC075 41 32 70% 35 30.13 0.0
10 06:35 N 12 10.00 Overcast OVC075 41 32 70% 35 30.12 0.0
10 06:15 N 9 10.00 Overcast OVC080 42.8 30.2 61% 38 30.11 0.0
10 05:55 N 8 10.00 Overcast OVC080 41 30.2 66% 36 30.1 0.0
10 05:35 N 8 10.00 Overcast OVC080 41 30.2 66% 36 30.09 0.0
10 05:15 N 8 10.00 Mostly Cloudy FEW038 FEW065 BKN085 41 32 70% 36 30.08 0.0
10 04:55 N 7 10.00 Mostly Cloudy FEW040 SCT045 BKN090 41 30.2 66% 37 30.08 0.0
10 04:35 N 8 10.00 Mostly Cloudy FEW044 FEW050 BKN085 41 30.2 66% 36 30.07 0.0
10 04:15 NE 8 10.00 Overcast BKN080 OVC090 42.8 30.2 61% 39 30.06 0.0
10 03:55 N 9 10.00 Overcast BKN075 OVC085 44.6 30.2 57% 40 30.06 0.0
10 03:35 NE 12 10.00 Overcast BKN075 OVC085 44.6 30.2 57% 39 30.04 0.0
10 03:15 N 10 G 17 10.00 Overcast BKN075 OVC085 44.6 30.2 57% 40 30.04 0.0
10 02:55 N 8 10.00 Overcast BKN075 OVC085 44.6 30.2 57% 41 30.03 0.0
10 02:35 NW 8 10.00 Overcast BKN075 OVC090 44.6 30.2 57% 41 30.02 0.0
10 02:15 NW 5 10.00 Overcast BKN080 OVC090 42.8 32 66% 41 30.02 0.0
10 01:55 Calm 10.00 Overcast BKN075 OVC090 42.8 32 66% 30.01 0.0
10 01:35 W 5 10.00 Overcast BKN075 OVC090 42.8 30.2 61% 41 30.01 0.0
10 01:15 NW 3 10.00 Overcast SCT075 OVC090 42.8 32 66% 30.01 0.0
10 00:55 SW 7 10.00 Overcast FEW080 OVC090 42.8 32 66% 39 29.99 0.0
10 00:35 SW 3 10.00 Overcast SCT075 OVC090 44.6 30.2 57% 30 0.0
10 00:15 NW 3 10.00 Overcast BKN070 OVC085 46.4 30.2 53% 30 0.0
09 23:55 Calm 10.00 Overcast BKN070 OVC085 46.4 30.2 53% 30 0.0
09 23:35 Calm 10.00 Overcast BKN075 OVC090 46.4 28.4 50% 29.99 0.0
09 23:15 W 5 10.00 Overcast OVC075 46.4 30.2 53% 45 29.99 0.0
09 22:55 W 3 10.00 Overcast BKN075 OVC090 46.4 28.4 50% 29.98 0.0
09 22:35 Calm 10.00 Overcast BKN075 OVC085 48.2 28.4 46% 29.98 0.0
09 22:15 Calm 10.00 Overcast BKN075 OVC085 50 26.6 40% 29.98 0.0
09 21:55 NW 3 10.00 Overcast FEW065 BKN075 OVC085 50 26.6 40% 29.98 0.0
09 21:35 NW 6 10.00 Overcast OVC080 50 26.6 40% 48 29.97 0.0
09 21:15 N 5 10.00 Overcast OVC085 51.8 24.8 35% 29.97 0.0
09 20:55 N 8 10.00 Overcast OVC090 53.6 24.8 33% 29.96 0.0
09 20:35 N 12 10.00 Overcast OVC090 53.6 24.8 33% 29.95 0.0
09 20:15 N 14 10.00 Mostly Cloudy BKN090 53.6 24.8 33% 29.95 0.0
09 19:55 N 18 10.00 A Few Clouds FEW080 55.4 23 28% 29.94 0.0
09 19:35 NW 17 10.00 Mostly Cloudy BKN080 57.2 24.8 29% 29.94 0.0
09 19:15 N 16 G 22 10.00 Mostly Cloudy BKN080 57.2 23 27% 29.93 0.0
09 18:55 N 16 G 25 10.00 Mostly Cloudy BKN080 BKN085 57.2 23 27% 29.93 0.0
09 18:35 NW 14 G 22 10.00 Mostly Cloudy BKN080 BKN085 57.2 23 27% 29.92 0.0
09 18:15 N 16 G 25 10.00 Mostly Cloudy BKN075 57.2 24.8 29% 29.92 0.0
09 17:55 NW 22 10.00 Mostly Cloudy and Breezy BKN075 BKN085 59 24.8 27% 29.92 0.0
09 17:35 N 17 G 24 10.00 Mostly Cloudy BKN075 BKN085 59 24.8 27% 29.91 0.0
09 17:15 NW 17 G 26 10.00 Partly Cloudy SCT075 57.2 24.8 29% 29.92 0.0
09 16:55 NW 17 G 24 10.00 Partly Cloudy SCT075 59 24.8 27% 29.91 0.0
09 16:35 NW 20 10.00 A Few Clouds FEW070 59 26.6 29% 29.91 0.0
09 16:15 N 15 G 22 10.00 Partly Cloudy SCT070 59 24.8 27% 29.91 0.0
09 15:55 N 14 G 25 10.00 A Few Clouds FEW070 57.2 26.6 31% 29.91 0.0
09 15:35 N 16 G 25 10.00 A Few Clouds FEW070 57.2 24.8 29% 29.91 0.0
09 15:15 NW 20 G 28 10.00 Partly Cloudy SCT065 57.2 26.6 31% 29.92 0.0
09 14:55 NW 17 10.00 Mostly Cloudy BKN060 57.2 28.4 33% 29.91 0.0
09 14:35 N 24 G 30 10.00 Partly Cloudy and Breezy SCT060 55.4 28.4 36% 29.91 0.0
09 14:15 NW 12 G 25 10.00 A Few Clouds FEW055 55.4 28.4 36% 29.91 0.0
09 13:55 N 20 10.00 Partly Cloudy SCT055 55.4 28.4 36% 29.91 0.0
09 13:35 N 14 G 23 10.00 Partly Cloudy SCT050 53.6 32 44% 29.91 0.0
09 13:15 NW 16 G 28 10.00 A Few Clouds FEW050 53.6 30.2 41% 29.91 0.0
09 12:55 N 16 G 26 10.00 A Few Clouds FEW050 53.6 30.2 41% 29.91 0.0
09 12:35 N 20 10.00 Fair CLR 53.6 30.2 41% 29.91 0.0
09 12:15 N 21 10.00 Fair and Breezy CLR 51.8 30.2 44% 29.9 0.0
09 11:55 N 20 G 25 10.00 Fair CLR 51.8 30.2 44% 29.9 0.0
09 11:35 N 21 10.00 A Few Clouds and Breezy FEW047 50 32 50% 44 29.89 0.0
09 11:15 N 21 10.00 Fair and Breezy CLR 50 32 50% 44 29.89 0.0
09 10:55 N 21 10.00 Fair and Breezy CLR 50 32 50% 44 29.89 0.0
09 10:35 N 21 G 28 10.00 Fair and Breezy CLR 48.2 32 54% 42 29.88 0.0
09 10:15 N 20 10.00 Fair CLR 48.2 33.8 58% 42 29.87 0.0
09 09:55 N 18 G 29 10.00 Fair CLR 48.2 33.8 58% 42 29.86 0.0
09 09:35 N 21 10.00 Fair and Breezy CLR 46.4 35.6 66% 39 29.85 0.0
09 09:15 N 17 G 24 10.00 Fair CLR 46.4 35.6 66% 40 29.85 0.0
09 08:55 N 16 10.00 Fair CLR 44.6 41 87% 38 29.84 0.0
09 08:35 N 15 10.00 Fair CLR 44.6 44.6 100% 38 29.83 0.0
09 08:15 N 13 10.00 Fair CLR 44.6 44.6 100% 39 29.82 0.0
09 07:55 N 14 10.00 Fair CLR 42.8 42.8 100% 36 29.81 0.0
09 07:35 N 13 10.00 Fair CLR 42.8 42.8 100% 37 29.8 0.0
09 07:15 N 13 10.00 Fair CLR 41 41 100% 34 29.79 0.0
09 06:55 N 14 10.00 Fair CLR 41 41 100% 34 29.78 0.0
09 06:35 NW 14 G 20 10.00 Fair CLR 41 41 100% 34 29.76 0.0
09 06:15 N 15 10.00 Fair CLR 41 41 100% 34 29.75 0.0
09 05:55 NW 10 9.00 Fair CLR 39.2 39.2 100% 33 29.74 0.0
09 05:35 NW 9 6.00 Fog/Mist FEW042 FEW048 FEW060 37.4 37.4 100% 31 29.73 0.0
09 05:15 NW 7 9.00 Mostly Cloudy BKN043 BKN050 BKN060 39.2 39.2 100% 35 29.72 0.0
09 04:55 NW 7 10.00 Overcast BKN043 OVC050 41 41 100% 37 29.71 0.0
09 04:35 N 8 10.00 Overcast BKN044 OVC050 42.8 42.8 100% 39 29.71 0.0
09 04:15 N 10 10.00 Overcast OVC047 44.6 44.6 100% 40 29.71 0.0
09 03:55 NW 12 10.00 Mostly Cloudy SCT046 BKN055 42.8 42.8 100% 37 29.7 0.0
09 03:35 NW 10 9.00 Mostly Cloudy BKN055 BKN070 44.6 44.6 100% 40 29.68 0.0
09 03:15 NW 10 10.00 Partly Cloudy FEW055 SCT065 SCT070 44.6 44.6 100% 40 29.67 0.0
09 02:55 NW 10 10.00 Mostly Cloudy FEW047 BKN060 BKN070 46.4 46.4 100% 42 29.66 0.0
09 02:35 NW 8 10.00 Overcast BKN060 BKN065 OVC075 46.4 46.4 100% 43 29.65 0.0
09 02:15 NW 5 10.00 Overcast OVC060 46.4 46.4 100% 45 29.64 0.0
09 01:55 N 5 10.00 Overcast FEW042 OVC050 46.4 46.4 100% 45 29.64 0.0 0.04
09 01:35 E 3 10.00 Overcast BKN043 BKN055 OVC065 46.4 46.4 100% 29.64 0.0
09 01:15 E 6 4.00 Light Rain Fog/Mist SCT044 OVC055 46.4 46.4 100% 44 29.63 0.0
09 00:55 NE 10 5.00 Light Rain Fog/Mist SCT044 OVC055 46.4 46.4 100% 42 29.65 0.0 0.07
09 00:35 N 16 3.00 Light Rain Fog/Mist BKN043 OVC055 48.2 48.2 100% 43 29.66 0.0
09 00:15 N 18 G 29 4.00 Light Rain Fog/Mist SCT044 OVC055 48.2 48.2 100% 42 29.66 0.0
08 23:55 N 20 9.00 Light Rain SCT045 BKN055 OVC065 50 50 100% 44 29.66 0.0 0.01
08 23:35 N 20 10.00 Overcast FEW042 BKN060 OVC070 51.8 51.8 100% 29.65 0.0
08 23:15 N 18 G 26 7.00 Light Rain FEW032 BKN041 OVC055 51.8 51.8 100% 29.65 0.0
08 22:55 NW 30 G 38 7.00 Light Rain and Windy SCT035 BKN055 OVC065 55.4 44.6 67% 29.65 0.0
08 22:35 N 28 G 41 9.00 Light Rain and Windy FEW044 BKN060 OVC075 59 37.4 45% 29.61 0.0
08 22:15 SW 6 10.00 Overcast BKN075 OVC095 53.6 28.4 38% 29.59 0.0
08 21:55 S 6 10.00 Mostly Cloudy FEW050 SCT075 BKN095 53.6 28.4 38% 29.58 0.0
08 21:35 SW 3 9.00 Partly Cloudy SCT120 53.6 26.6 35% 29.59 0.0
08 21:15 W 5 7.00 Fair CLR 55.4 26.6 33% 29.6 0.0
08 20:55 NW 7 9.00 Fair CLR 57.2 28.4 33% 29.6 0.0
08 20:35 NW 5 9.00 Fair CLR 59 30.2 34% 29.6 0.0
08 20:15 NW 10 10.00 Fair CLR 64.4 30.2 28% 29.61 0.0
08 19:55 NW 14 10.00 Fair CLR 64.4 30.2 28% 29.61 0.0
08 19:35 N 12 G 20 10.00 A Few Clouds FEW090 66.2 30.2 26% 29.62 0.0
08 19:15 NW 17 G 28 10.00 A Few Clouds FEW090 66.2 28.4 24% 29.62 0.0
08 18:55 NW 18 G 26 10.00 Fair CLR 66.2 28.4 24% 29.62 0.0
08 18:35 NW 17 G 29 10.00 Fair CLR 66.2 28.4 24% 29.63 0.0
08 18:15 NW 26 10.00 Fair and Windy CLR 68 28.4 23% 29.63 0.0
08 17:55 NW 25 10.00 Fair and Breezy CLR 68 28.4 23% 29.64 0.0
08 17:35 NW 25 10.00 Fair and Breezy CLR 68 28.4 23% 29.64 0.0
08 17:15 NW 26 G 36 10.00 Fair and Windy CLR 68 28.4 23% 29.64 0.0
08 16:55 NW 28 G 39 10.00 Fair and Windy CLR 68 26.6 21% 29.64 0.0
08 16:35 NW 23 G 31 10.00 Fair and Breezy CLR 68 28.4 23% 29.63 0.0
08 16:15 NW 18 G 35 10.00 Fair CLR 68 26.6 21% 29.63 0.0
08 15:55 NW 28 G 40 10.00 A Few Clouds and Windy FEW085 69.8 28.4 21% 29.63 0.0
08 15:35 NW 26 G 37 10.00 Windy NULL 69.8 28.4 21% 29.63 0.0
08 15:15 NW 29 0.00 Windy NULL 69.8 28.4 21% 29.62 0.0
08 14:55 NW 25 G 33 10.00 Fair and Breezy CLR 69.8 26.6 20% 29.62 0.0
08 14:35 NW 21 G 32 10.00 Fair and Breezy CLR 69.8 26.6 20% 29.62 0.0
08 14:15 NW 18 G 33 10.00 A Few Clouds FEW100 69.8 26.6 20% 29.63 0.0
08 13:55 NW 23 G 30 10.00 A Few Clouds and Breezy FEW100 69.8 24.8 18% 29.63 0.0
08 13:35 NW 18 G 35 10.00 Fair CLR 68 24.8 20% 29.63 0.0
08 13:15 NW 20 G 33 10.00 Fair CLR 68 24.8 20% 29.63 0.0
08 12:55 NW 16 G 25 10.00 Fair CLR 68 24.8 20% 29.64 0.0
08 12:35 W 12 G 23 10.00 Fair CLR 68 21.2 17% 29.65 0.0
08 12:15 W 13 10.00 A Few Clouds FEW100 66.2 21.2 18% 29.66 0.0
08 11:55 W 12 G 18 10.00 A Few Clouds FEW095 66.2 23 19% 29.66 0.0
08 11:35 Vrbl 6 G 18 10.00 A Few Clouds FEW090 FEW110 66.2 21.2 18% 29.67 0.0
08 11:15 W 12 10.00 Fair CLR 64.4 23 21% 29.68 0.0
08 10:55 Vrbl 6 G 12 10.00 A Few Clouds FEW095 62.6 23 22% 29.68 0.0
08 10:35 SW 7 9.00 Light Rain SCT090 SCT110 60.8 24.8 25% 29.69 0.0
08 10:15 S 9 10.00 Partly Cloudy SCT100 59 23 25% 29.69 0.0
08 09:55 S 8 10.00 A Few Clouds FEW110 59 23 25% 29.7 0.0
08 09:35 S 7 10.00 Mostly Cloudy SCT090 BKN120 55.4 26.6 33% 29.71 0.0
08 09:15 S 6 10.00 Mostly Cloudy SCT090 BKN120 53.6 24.8 33% 29.71 0.0
08 08:55 Vrbl 3 10.00 A Few Clouds FEW120 51.8 24.8 35% 29.71 0.0
08 08:35 SW 6 10.00 A Few Clouds FEW090 50 24.8 37% 48 29.72 0.0
08 08:15 S 7 10.00 Fair CLR 46.4 24.8 43% 43 29.72 0.0
08 07:55 S 3 10.00 A Few Clouds FEW090 44.6 24.8 46% 29.73 0.0
08 07:35 Calm 10.00 A Few Clouds FEW090 42.8 26.6 53% 29.73 0.0
08 07:15 Calm 10.00 Fair CLR 39.2 24.8 56% 29.73 0.0
08 06:55 Calm 10.00 A Few Clouds FEW120 37.4 24.8 60% 29.73 0.0
08 06:35 N 3 10.00 Mostly Cloudy BKN120 37.4 24.8 60% 29.73 0.0
08 06:15 NE 5 10.00 Overcast BKN095 OVC120 37.4 23 56% 34 29.72 0.0
08 05:55 NW 5 10.00 Overcast BKN090 OVC110 35.6 23 60% 32 29.74 0.0
08 05:35 Calm 10.00 Overcast BKN085 OVC110 37.4 21.2 52% 29.73 0.0
08 05:15 Calm 10.00 Overcast BKN080 OVC100 35.6 23 60% 29.73 0.0
08 04:55 Calm 10.00 Overcast BKN080 OVC110 37.4 26.6 65% 29.73 0.0
08 04:35 Calm 10.00 Overcast BKN085 OVC110 37.4 30.2 75% 29.73 0.0
08 04:15 Calm 10.00 Overcast FEW036 BKN085 OVC110 35.6 32 87% 29.73 0.0
08 03:55 Calm 10.00 Mostly Cloudy SCT037 BKN047 BKN055 35.6 32 87% 29.73 0.0
08 03:35 Calm 10.00 Mostly Cloudy FEW030 BKN040 BKN050 35.6 35.6 100% 29.74 0.0
08 03:15 Calm 10.00 Mostly Cloudy FEW031 SCT040 BKN070 35.6 24.8 65% 29.74 0.0
08 02:55 N 3 10.00 Partly Cloudy FEW037 SCT043 SCT060 37.4 24.8 60% 29.74 0.0
08 02:35 Calm 10.00 Partly Cloudy FEW039 FEW060 SCT075 37.4 19.4 48% 29.74 0.0
08 02:15 Calm 10.00 Mostly Cloudy FEW038 SCT055 BKN070 37.4 21.2 52% 29.75 0.0
08 01:55 Calm 10.00 Mostly Cloudy FEW036 SCT050 BKN070 39.2 21.2 48% 29.75 0.0
08 01:35 Calm 10.00 Mostly Cloudy SCT035 SCT044 BKN070 39.2 21.2 48% 29.75 0.0
08 01:15 SE 3 10.00 Mostly Cloudy SCT031 SCT037 BKN044 41 24.8 53% 29.75 0.0
08 00:55 SE 5 10.00 Mostly Cloudy FEW026 SCT032 BKN041 44.6 23 43% 43 29.75 0.0
08 00:35 E 5 10.00 Partly Cloudy FEW026 SCT031 SCT038 46.4 21.2 37% 45 29.75 0.0
08 00:15 E 5 10.00 Mostly Cloudy FEW029 SCT037 BKN047 46.4 23 40% 45 29.75 0.0
07 23:55 E 5 10.00 Partly Cloudy FEW034 FEW046 SCT055 46.4 21.2 37% 45 29.76 0.0
07 23:35 NE 6 9.00 Partly Cloudy FEW055 SCT065 42.8 23 46% 40 29.76 0.0
07 23:15 NE 5 9.00 Partly Cloudy FEW031 FEW045 SCT055 44.6 17.6 34% 43 29.76 0.0
07 22:55 Calm 9.00 Mostly Cloudy FEW044 SCT050 BKN060 44.6 17.6 34% 29.76 0.0
07 22:35 Calm 9.00 Mostly Cloudy BKN050 BKN060 42.8 14 31% 29.76 0.0
07 22:15 SW 3 10.00 Mostly Cloudy FEW044 BKN050 BKN060 46.4 19.4 34% 29.76 0.0
07 21:55 Calm 10.00 Mostly Cloudy FEW043 SCT048 BKN060 46.4 19.4 34% 29.76 0.0
07 21:35 Calm 10.00 Partly Cloudy FEW047 SCT055 50 17.6 28% 29.76 0.0
07 21:15 Calm 10.00 Fair CLR 50 17.6 28% 29.75 0.0
07 20:55 Calm 10.00 Fair CLR 53.6 17.6 24% 29.75 0.0
07 20:35 NW 6 10.00 Fair CLR 53.6 17.6 24% 29.75 0.0
07 20:15 NW 7 10.00 Fair CLR 57.2 19.4 23% 29.75 0.0
07 19:55 NW 7 G 13 10.00 Fair CLR 59 17.6 20% 29.75 0.0
07 19:35 NW 14 10.00 Fair CLR 60.8 17.6 19% 29.75 0.0
07 19:15 W 8 10.00 Fair CLR 60.8 17.6 19% 29.75 0.0
07 18:55 W 9 G 22 10.00 Fair CLR 60.8 17.6 19% 29.75 0.0
07 18:35 NW 8 G 25 10.00 Fair CLR 60.8 19.4 20% 29.75 0.0
07 18:15 W 15 G 22 10.00 Fair CLR 60.8 17.6 19% 29.75 0.0
07 17:55 NW 12 G 20 10.00 Fair CLR 60.8 19.4 20% 29.76 0.0
07 17:35 NW 21 G 26 10.00 Fair and Breezy CLR 62.6 21.2 20% 29.76 0.0
07 17:15 NW 14 G 22 10.00 A Few Clouds FEW095 60.8 21.2 22% 29.76 0.0
07 16:55 NW 13 G 18 10.00 A Few Clouds FEW090 60.8 21.2 22% 29.77 0.0
07 16:35 NW 16 G 22 10.00 A Few Clouds FEW090 62.6 21.2 20% 29.77 0.0
07 16:15 NW 15 G 30 10.00 Fair CLR 60.8 21.2 22% 29.78 0.0
07 15:15 NW 8 G 20 10.00 Mostly Cloudy BKN080 60.8 23 23% 29.8 0.0
07 14:55 NW 12 G 21 10.00 Partly Cloudy SCT080 59 23 25% 29.8 0.0
07 14:35 NW 8 G 20 10.00 A Few Clouds FEW080 57.2 23 27% 29.81 0.0
07 14:15 NW 17 10.00 A Few Clouds FEW080 59 21.2 23% 29.81 0.0
07 13:55 W 12 10.00 A Few Clouds FEW080 57.2 21.2 25% 29.82 0.0
07 13:35 NW 16 G 25 10.00 A Few Clouds FEW075 57.2 23 27% 29.82 0.0
07 13:15 NW 15 10.00 Partly Cloudy SCT070 57.2 23 27% 29.83 0.0
07 12:55 NW 14 G 22 10.00 Mostly Cloudy BKN070 55.4 21.2 26% 29.83 0.0
07 12:35 NW 13 G 20 10.00 A Few Clouds FEW070 55.4 24.8 31% 29.84 0.0
07 12:15 NW 9 G 21 10.00 Fair CLR 55.4 24.8 31% 29.85 0.0
07 11:55 NW 10 G 21 10.00 A Few Clouds FEW070 55.4 23 28% 29.86 0.0
07 11:35 W 9 G 22 10.00 Partly Cloudy SCT070 53.6 23 30% 29.86 0.0
07 11:15 W 10 G 17 10.00 Partly Cloudy SCT065 53.6 23 30% 29.86 0.0
Date Time (cdt) Wind (mph) Vis. (mi.) Weather Sky Cond. Air Dwpt Max. Min. Relative Humidity Wind Chill (°F) Heat Index (°F) altimeter (in) sea level (mb) 1 hr 3 hr 6 hr
6 hour
Temperature (ºF) Pressure Precipitation (in)